Terminal Aerodrome Forecast
Issued by NWS Sterling, VA

Current Version | Previous Version | Text Only | Print | Product List | Glossary On
Versions: 1 2 3 4 5 6 7 8 9 10 11 12 13 14 15 16 17 18 19 20 21 22 23 24 25 26
000
FTUS41 KLWX 032340
TAFIAD
TAF
KIAD 032340Z 0400/0506 31007KT P6SM SCT050 BKN100
     FM040200 VRB04KT P6SM SCT060
     FM041400 03006KT P6SM BKN060
     FM041900 09009KT P6SM SCT050 BKN200=

USA.gov is the U.S. government's official web portal to all federal, state and local government web resources and services.